Thurgau — HBLF — position and weather

sailwx.info

Track history (hours):
 
Tides and Currents Weather Stations Pressure Air Temp Water Temp Dewpoint Dewpoint Depression Visibility Wind Speed Wind Dir Waves Ship Positions

Thurgau

Last reported at 2016-Jan-04 06:24 UTC. Time now 2016-Apr-29 14:03 UTC.
Position S 39°55' E 141°03'.
Warning: this ship's position is months out of date.

Length 180 m; draft 6.2 m.

Type: Cargo ship. MMSI: 269217000.

Date/timePositionNaut miles runAvg speedWind from/ knotsBaromVisibWave heightAir tempDewpointWater temp
2016-Jan-04 06:24S 39°55' E 141°03'1312.8
2016-Jan-04 05:22S 40°04' E 141°16'1312.7
2016-Jan-04 04:21S 40°13' E 141°27'1113.9
2016-Jan-04 03:32S 40°21' E 141°38'1715.5
2016-Jan-04 02:24S 40°34' E 141°54'1915.6
2016-Jan-04 01:10S 40°48' E 142°11'1 2.0
2016-Jan-04 00:33S 40°49' E 142°12'2019.9
2016-Jan-03 23:32S 41°03' E 142°31'8812.6
2016-Jan-03 16:31S 42°07' E 143°54'3912.8
2016-Jan-03 13:30S 42°34' E 144°30'3911.9
2016-Jan-03 10:16S 43°02' E 145°07'1 1.1
2016-Jan-03 09:20S 43°03' E 145°08'1112.4
2016-Jan-03 08:25S 43°11' E 145°19'1213.2
2016-Jan-03 07:32S 43°19' E 145°30'3113.5
2016-Jan-03 05:14S 43°41' E 146°00'912.1
2016-Jan-03 04:30S 43°42' E 146°12'1011.0
2016-Jan-03 03:33S 43°42' E 146°27'2418.0
2016-Jan-03 02:12S 43°39' E 147°00'0 0.2
2016-Jan-03 01:33S 43°39' E 147°00'2017.1
2016-Jan-03 00:24S 43°29' E 147°24'4 4.4
2016-Jan-02 23:33S 43°26' E 147°25'1212.1
2016-Jan-02 22:33S 43°14' E 147°27'1212.0
2016-Jan-02 21:33S 43°02' E 147°23'1010.4
2016-Jan-02 20:33S 42°52' E 147°21'2 2.3
2016-Jan-02 19:32S 42°50' E 147°19'0 0.0
2016-Jan-02 18:33S 42°50' E 147°19'0 0.0
2016-Jan-02 17:32S 42°50' E 147°19'0 0.0
2016-Jan-02 16:32S 42°50' E 147°19'0 0.0
2016-Jan-02 15:32S 42°50' E 147°19'0 0.0
2016-Jan-02 14:32S 42°50' E 147°19'0 0.0
2016-Jan-02 13:32S 42°50' E 147°19'0 0.0
2016-Jan-02 12:32S 42°50' E 147°19'0 0.0
2016-Jan-02 11:32S 42°50' E 147°19'0 0.0
2016-Jan-02 10:32S 42°50' E 147°19'0 0.0
2016-Jan-02 09:32S 42°50' E 147°19'0 0.0
2016-Jan-02 08:32S 42°50' E 147°19'0 0.0
2016-Jan-02 07:31S 42°50' E 147°19'0 0.0
2016-Jan-02 06:32S 42°50' E 147°19'0 0.0
2016-Jan-02 05:32S 42°50' E 147°19'0 0.0
2016-Jan-02 04:31S 42°50' E 147°19'0 0.0
2016-Jan-02 03:33S 42°50' E 147°19'0 0.0
2016-Jan-02 02:32S 42°50' E 147°19'0 0.0
2016-Jan-02 01:32S 42°50' E 147°19'0 0.0
2016-Jan-02 00:32S 42°50' E 147°19'0 0.0
2016-Jan-01 23:32S 42°50' E 147°19'0 0.0
2016-Jan-01 22:32S 42°50' E 147°19'0 0.0
2016-Jan-01 21:31S 42°50' E 147°19'0 0.0
2016-Jan-01 20:32S 42°50' E 147°19'0 0.0
2016-Jan-01 19:32S 42°50' E 147°19'0 0.0
2016-Jan-01 18:31S 42°50' E 147°19'0 0.0
2016-Jan-01 17:33S 42°50' E 147°19'0 0.0
2016-Jan-01 16:33S 42°50' E 147°19'0 0.0
2016-Jan-01 15:33S 42°50' E 147°19'0 0.0
2016-Jan-01 14:32S 42°50' E 147°19'0 0.0
2016-Jan-01 13:32S 42°50' E 147°19'0 0.1
2016-Jan-01 12:33S 42°50' E 147°19'6 5.7
2016-Jan-01 11:33S 42°55' E 147°23'2 1.9
2016-Jan-01 10:31S 42°57' E 147°23'0 0.0
2016-Jan-01 09:31S 42°57' E 147°23'0 0.0
2016-Jan-01 08:31S 42°57' E 147°23'0 0.0
2016-Jan-01 07:31S 42°57' E 147°23'0 0.0
2016-Jan-01 06:33S 42°57' E 147°23'0 0.0
2016-Jan-01 05:31S 42°57' E 147°23'0 0.0
2016-Jan-01 04:31S 42°57' E 147°23'0 0.0
2016-Jan-01 03:31S 42°57' E 147°23'0 0.0
2016-Jan-01 02:31S 42°57' E 147°23'0 0.0
2016-Jan-01 01:32S 42°57' E 147°23'0 0.0
2016-Jan-01 00:31S 42°57' E 147°23'0 0.0
2015-Dec-31 23:33S 42°57' E 147°23'0 0.0
2015-Dec-31 22:31S 42°57' E 147°23'0 0.0
2015-Dec-31 21:31S 42°57' E 147°23'0 0.0
2015-Dec-31 20:31S 42°57' E 147°23'0 0.0
2015-Dec-31 19:31S 42°57' E 147°23'0 0.0
2015-Dec-31 18:31S 42°57' E 147°23'0 0.1
2015-Dec-31 17:31S 42°57' E 147°23'0 0.0
2015-Dec-31 16:31S 42°57' E 147°23'0 0.0
2015-Dec-31 15:31S 42°57' E 147°23'0 0.0
2015-Dec-31 14:31S 42°57' E 147°23'0 0.0
2015-Dec-31 13:31S 42°57' E 147°23'0 0.0
2015-Dec-31 12:31S 42°57' E 147°23'0 0.0
2015-Dec-31 11:31S 42°57' E 147°23'0 0.1
2015-Dec-31 10:31S 42°57' E 147°23'0 0.0
2015-Dec-31 09:31S 42°57' E 147°23'0 0.0
2015-Dec-31 08:32S 42°57' E 147°23'0 0.0
2015-Dec-31 07:31S 42°57' E 147°23'0 0.0
2015-Dec-31 06:31S 42°57' E 147°23'0 0.1
2015-Dec-31 05:31S 42°57' E 147°23'0 0.0
2015-Dec-31 04:31S 42°57' E 147°23'0 0.0
2015-Dec-31 03:31S 42°57' E 147°23'0 0.0
2015-Dec-31 02:32S 42°57' E 147°23'0 0.1
2015-Dec-31 01:33S 42°57' E 147°23'0 0.1
2015-Dec-31 00:32S 42°57' E 147°23'0 0.1
2015-Dec-30 23:31S 42°57' E 147°23'0 0.0
2015-Dec-30 22:31S 42°57' E 147°23'0 0.0
2015-Dec-30 21:31S 42°57' E 147°23'0 0.1
2015-Dec-30 20:31S 42°57' E 147°23'0 0.1
2015-Dec-30 19:31S 42°57' E 147°23'0 0.0
2015-Dec-30 18:31S 42°57' E 147°23'0 0.0
2015-Dec-30 17:31S 42°57' E 147°23'0 0.0
2015-Dec-30 16:31S 42°57' E 147°23'0 0.1
2015-Dec-30 15:31S 42°57' E 147°23'0 0.1
2015-Dec-30 14:31S 42°57' E 147°23'0 0.1
2015-Dec-30 13:31S 42°57' E 147°23'0 0.0
2015-Dec-30 12:31S 42°57' E 147°23'0 0.0
2015-Dec-30 11:31S 42°57' E 147°23'0 0.0
2015-Dec-30 10:33S 42°57' E 147°23'0 0.0
2015-Dec-30 09:33S 42°57' E 147°23'0 0.0
2015-Dec-30 08:31S 42°57' E 147°23'0 0.0
2015-Dec-30 07:33S 42°57' E 147°23'0 0.0
2015-Dec-30 06:31S 42°57' E 147°23'0 0.0
2015-Dec-30 05:31S 42°57' E 147°23'0 0.0
2015-Dec-30 04:33S 42°57' E 147°23'0 0.0
2015-Dec-30 03:33S 42°57' E 147°23'0 0.0
2015-Dec-30 02:31S 42°57' E 147°23'0 0.0
2015-Dec-30 01:31S 42°57' E 147°23'0 0.2
2015-Dec-30 00:31S 42°57' E 147°23'0 0.1
2015-Dec-29 23:31S 42°57' E 147°23'0 0.0
2015-Dec-29 22:33S 42°57' E 147°23'0 0.0
2015-Dec-29 21:31S 42°57' E 147°23'0 0.0
2015-Dec-29 20:27S 42°57' E 147°23'0 0.1
2015-Dec-29 19:31S 42°57' E 147°23'0 0.1
2015-Dec-29 18:33S 42°57' E 147°23'0 0.0
2015-Dec-29 17:31S 42°57' E 147°23'0 0.1
2015-Dec-29 16:31S 42°57' E 147°23'0 0.1
2015-Dec-29 15:32S 42°57' E 147°23'0 0.0
2015-Dec-29 14:31S 42°57' E 147°23'0 0.1
2015-Dec-29 13:31S 42°57' E 147°23'0 0.1
2015-Dec-29 12:31S 42°57' E 147°23'0 0.0
2015-Dec-29 11:34S 42°57' E 147°23'0 0.0
2015-Dec-29 10:31S 42°57' E 147°23'0 0.0
2015-Dec-29 09:31S 42°57' E 147°23'0 0.0
2015-Dec-29 08:32S 42°57' E 147°23'0 0.2
2015-Dec-29 07:31S 42°57' E 147°23'1010.3
2015-Dec-29 06:33S 43°06' E 147°27'1413.7
2015-Dec-29 05:34S 43°13' E 147°43'1212.0
2015-Dec-29 04:33S 43°16' E 147°59'1010.5
2015-Dec-29 03:33S 43°09' E 148°10'1413.5
2015-Dec-29 02:33S 42°56' E 148°15'1413.8
2015-Dec-29 01:33S 42°43' E 148°20'1414.2
2015-Dec-29 00:34S 42°29' E 148°26'2522.8
2015-Dec-28 23:27S 42°04' E 148°29'2 2.1
2015-Dec-28 22:33S 42°02' E 148°29'1312.4
2015-Dec-28 21:32S 41°50' E 148°29'1312.8
2015-Dec-28 20:33S 41°37' E 148°29'6114.3
2015-Dec-28 16:17S 40°39' E 148°05'16 8.4
2015-Dec-28 14:27S 40°42' E 147°45'2614.0
2015-Dec-28 12:33S 40°53' E 147°13'1211.5
2015-Dec-28 11:29S 40°55' E 146°57'1112.1
2015-Dec-28 10:33S 41°02' E 146°45'8 6.4
2015-Dec-28 09:21S 41°08' E 146°52'0 0.0
2015-Dec-28 08:16S 41°08' E 146°52'0 0.0
2015-Dec-28 07:27S 41°08' E 146°52'0 0.0
2015-Dec-28 06:24S 41°08' E 146°52'0 0.0
2015-Dec-28 05:30S 41°08' E 146°52'0 0.0
2015-Dec-28 04:33S 41°08' E 146°52'0 0.0
2015-Dec-28 03:30S 41°08' E 146°52'0 0.0
2015-Dec-28 02:06S 41°08' E 146°52'0 0.0
2015-Dec-28 01:33S 41°08' E 146°52'0 0.0
2015-Dec-28 00:18S 41°08' E 146°52'0 0.0
2015-Dec-27 23:33S 41°08' E 146°52'0 0.0
2015-Dec-27 22:30S 41°08' E 146°52'0 0.0
2015-Dec-27 19:33S 41°08' E 146°52'0 0.0
2015-Dec-27 18:25S 41°08' E 146°52'0 0.0
2015-Dec-27 17:15S 41°08' E 146°52'0 0.0
2015-Dec-27 16:27S 41°08' E 146°52'0 0.0
2015-Dec-27 15:24S 41°08' E 146°52'0 0.0
2015-Dec-27 13:12S 41°08' E 146°52'0 0.0
2015-Dec-27 12:15S 41°08' E 146°52'0 0.0
2015-Dec-27 11:21S 41°08' E 146°52'0 0.0
2015-Dec-27 10:15S 41°08' E 146°52'0 0.0
2015-Dec-27 09:33S 41°08' E 146°52'0 0.0
2015-Dec-27 08:18S 41°08' E 146°52'0 0.0
2015-Dec-27 07:33S 41°08' E 146°52'0 0.0
2015-Dec-27 06:30S 41°08' E 146°52'0 0.0
2015-Dec-27 05:21S 41°08' E 146°52'0 0.0
2015-Dec-27 04:24S 41°08' E 146°52'0 0.0
2015-Dec-27 03:24S 41°08' E 146°52'0 0.0
2015-Dec-27 02:27S 41°08' E 146°52'1 0.6
2015-Dec-27 01:33S 41°08' E 146°53'0 0.0
2015-Dec-27 00:28S 41°08' E 146°53'0 0.0
2015-Dec-26 23:28S 41°08' E 146°53'0 0.2
2015-Dec-26 22:16S 41°08' E 146°52'0 0.0
2015-Dec-26 21:31S 41°08' E 146°52'0 0.0
2015-Dec-26 20:28S 41°08' E 146°52'0 0.0
2015-Dec-26 19:16S 41°08' E 146°52'0 0.0
2015-Dec-26 18:04S 41°08' E 146°52'0 0.0
2015-Dec-26 17:19S 41°08' E 146°52'0 0.0
2015-Dec-26 13:22S 41°08' E 146°53'0 0.0
2015-Dec-26 12:22S 41°08' E 146°53'0 0.1
2015-Dec-26 11:33S 41°08' E 146°53'0 0.0
2015-Dec-26 10:28S 41°08' E 146°53'0 0.1
2015-Dec-26 09:28S 41°08' E 146°52'5 5.3
2015-Dec-26 08:33S 41°05' E 146°48'5 5.2
2015-Dec-26 07:32S 40°60' E 146°47'0 0.1
2015-Dec-26 06:26S 40°60' E 146°47'0 0.1
2015-Dec-26 05:20S 40°60' E 146°47'0 0.1
2015-Dec-26 04:31S 40°60' E 146°47'0 0.0
2015-Dec-26 03:27S 40°60' E 146°47'0 0.1
2015-Dec-26 02:17S 40°60' E 146°47'0 0.0
2015-Dec-26 01:32S 40°60' E 146°47'0 0.0
2015-Dec-26 00:26S 40°60' E 146°47'0 0.1
2015-Dec-25 23:28S 40°59' E 146°47'0 0.0
2015-Dec-25 22:29S 40°59' E 146°47'0 0.1
2015-Dec-25 21:30S 40°60' E 146°47'0 0.4
2015-Dec-25 20:33S 40°60' E 146°47'0 0.1
2015-Dec-25 19:33S 40°60' E 146°47'0 0.1
2015-Dec-25 18:28S 40°60' E 146°47'0 0.1
2015-Dec-25 17:30S 40°60' E 146°47'0 0.0
2015-Dec-25 16:32S 40°60' E 146°47'0 0.1
2015-Dec-25 15:32S 40°60' E 146°47'0 0.0
2015-Dec-25 14:32S 40°60' E 146°47'0 0.0
2015-Dec-25 13:32S 40°60' E 146°47'0 0.0
2015-Dec-25 12:32S 40°60' E 146°47'0 0.1
2015-Dec-25 11:32S 40°60' E 146°47'0 0.1
2015-Dec-25 10:32S 40°60' E 146°47'0 0.0
2015-Dec-25 09:32S 40°60' E 146°47'0 0.0
2015-Dec-25 08:32S 40°60' E 146°47'0 0.0
2015-Dec-25 07:32S 40°60' E 146°47'0 0.0
2015-Dec-25 06:32S 40°60' E 146°47'  
Track history (hours):
 
Tides and Currents Weather Stations Pressure Air Temp Water Temp Dewpoint Dewpoint Depression Visibility Wind Speed Wind Dir Waves Ship Positions

Thurgau

Last reported at 2016-Jan-04 06:24 UTC. Time now 2016-Apr-29 14:03 UTC.
Position S 39°55' E 141°03'.
Warning: this ship's position is months out of date.

Length 180 m; draft 6.2 m.

Type: Cargo ship. MMSI: 269217000.

Date/timePositionNaut miles runAvg speedWind from/ knotsBaromVisibWave heightAir tempDewpointWater temp
2016-Jan-04 06:24S 39°55' E 141°03'1312.8
2016-Jan-04 05:22S 40°04' E 141°16'1312.7
2016-Jan-04 04:21S 40°13' E 141°27'1113.9
2016-Jan-04 03:32S 40°21' E 141°38'1715.5
2016-Jan-04 02:24S 40°34' E 141°54'1915.6
2016-Jan-04 01:10S 40°48' E 142°11'1 2.0
2016-Jan-04 00:33S 40°49' E 142°12'2019.9
2016-Jan-03 23:32S 41°03' E 142°31'8812.6
2016-Jan-03 16:31S 42°07' E 143°54'3912.8
2016-Jan-03 13:30S 42°34' E 144°30'3911.9
2016-Jan-03 10:16S 43°02' E 145°07'1 1.1
2016-Jan-03 09:20S 43°03' E 145°08'1112.4
2016-Jan-03 08:25S 43°11' E 145°19'1213.2
2016-Jan-03 07:32S 43°19' E 145°30'3113.5
2016-Jan-03 05:14S 43°41' E 146°00'912.1
2016-Jan-03 04:30S 43°42' E 146°12'1011.0
2016-Jan-03 03:33S 43°42' E 146°27'2418.0
2016-Jan-03 02:12S 43°39' E 147°00'0 0.2
2016-Jan-03 01:33S 43°39' E 147°00'2017.1
2016-Jan-03 00:24S 43°29' E 147°24'4 4.4
2016-Jan-02 23:33S 43°26' E 147°25'1212.1
2016-Jan-02 22:33S 43°14' E 147°27'1212.0
2016-Jan-02 21:33S 43°02' E 147°23'1010.4
2016-Jan-02 20:33S 42°52' E 147°21'2 2.3
2016-Jan-02 19:32S 42°50' E 147°19'0 0.0
2016-Jan-02 18:33S 42°50' E 147°19'0 0.0
2016-Jan-02 17:32S 42°50' E 147°19'0 0.0
2016-Jan-02 16:32S 42°50' E 147°19'0 0.0
2016-Jan-02 15:32S 42°50' E 147°19'0 0.0
2016-Jan-02 14:32S 42°50' E 147°19'0 0.0
2016-Jan-02 13:32S 42°50' E 147°19'0 0.0
2016-Jan-02 12:32S 42°50' E 147°19'0 0.0
2016-Jan-02 11:32S 42°50' E 147°19'0 0.0
2016-Jan-02 10:32S 42°50' E 147°19'0 0.0
2016-Jan-02 09:32S 42°50' E 147°19'0 0.0
2016-Jan-02 08:32S 42°50' E 147°19'0 0.0
2016-Jan-02 07:31S 42°50' E 147°19'0 0.0
2016-Jan-02 06:32S 42°50' E 147°19'0 0.0
2016-Jan-02 05:32S 42°50' E 147°19'0 0.0
2016-Jan-02 04:31S 42°50' E 147°19'0 0.0
2016-Jan-02 03:33S 42°50' E 147°19'0 0.0
2016-Jan-02 02:32S 42°50' E 147°19'0 0.0
2016-Jan-02 01:32S 42°50' E 147°19'0 0.0
2016-Jan-02 00:32S 42°50' E 147°19'0 0.0
2016-Jan-01 23:32S 42°50' E 147°19'0 0.0
2016-Jan-01 22:32S 42°50' E 147°19'0 0.0
2016-Jan-01 21:31S 42°50' E 147°19'0 0.0
2016-Jan-01 20:32S 42°50' E 147°19'0 0.0
2016-Jan-01 19:32S 42°50' E 147°19'0 0.0
2016-Jan-01 18:31S 42°50' E 147°19'0 0.0
2016-Jan-01 17:33S 42°50' E 147°19'0 0.0
2016-Jan-01 16:33S 42°50' E 147°19'0 0.0
2016-Jan-01 15:33S 42°50' E 147°19'0 0.0
2016-Jan-01 14:32S 42°50' E 147°19'0 0.0
2016-Jan-01 13:32S 42°50' E 147°19'0 0.1
2016-Jan-01 12:33S 42°50' E 147°19'6 5.7
2016-Jan-01 11:33S 42°55' E 147°23'2 1.9
2016-Jan-01 10:31S 42°57' E 147°23'0 0.0
2016-Jan-01 09:31S 42°57' E 147°23'0 0.0
2016-Jan-01 08:31S 42°57' E 147°23'0 0.0
2016-Jan-01 07:31S 42°57' E 147°23'0 0.0
2016-Jan-01 06:33S 42°57' E 147°23'0 0.0
2016-Jan-01 05:31S 42°57' E 147°23'0 0.0
2016-Jan-01 04:31S 42°57' E 147°23'0 0.0
2016-Jan-01 03:31S 42°57' E 147°23'0 0.0
2016-Jan-01 02:31S 42°57' E 147°23'0 0.0
2016-Jan-01 01:32S 42°57' E 147°23'0 0.0
2016-Jan-01 00:31S 42°57' E 147°23'0 0.0
2015-Dec-31 23:33S 42°57' E 147°23'0 0.0
2015-Dec-31 22:31S 42°57' E 147°23'0 0.0
2015-Dec-31 21:31S 42°57' E 147°23'0 0.0
2015-Dec-31 20:31S 42°57' E 147°23'0 0.0
2015-Dec-31 19:31S 42°57' E 147°23'0 0.0
2015-Dec-31 18:31S 42°57' E 147°23'0 0.1
2015-Dec-31 17:31S 42°57' E 147°23'0 0.0
2015-Dec-31 16:31S 42°57' E 147°23'0 0.0
2015-Dec-31 15:31S 42°57' E 147°23'0 0.0
2015-Dec-31 14:31S 42°57' E 147°23'0 0.0
2015-Dec-31 13:31S 42°57' E 147°23'0 0.0
2015-Dec-31 12:31S 42°57' E 147°23'0 0.0
2015-Dec-31 11:31S 42°57' E 147°23'0 0.1
2015-Dec-31 10:31S 42°57' E 147°23'0 0.0
2015-Dec-31 09:31S 42°57' E 147°23'0 0.0
2015-Dec-31 08:32S 42°57' E 147°23'0 0.0
2015-Dec-31 07:31S 42°57' E 147°23'0 0.0
2015-Dec-31 06:31S 42°57' E 147°23'0 0.1
2015-Dec-31 05:31S 42°57' E 147°23'0 0.0
2015-Dec-31 04:31S 42°57' E 147°23'0 0.0
2015-Dec-31 03:31S 42°57' E 147°23'0 0.0
2015-Dec-31 02:32S 42°57' E 147°23'0 0.1
2015-Dec-31 01:33S 42°57' E 147°23'0 0.1
2015-Dec-31 00:32S 42°57' E 147°23'0 0.1
2015-Dec-30 23:31S 42°57' E 147°23'0 0.0
2015-Dec-30 22:31S 42°57' E 147°23'0 0.0
2015-Dec-30 21:31S 42°57' E 147°23'0 0.1
2015-Dec-30 20:31S 42°57' E 147°23'0 0.1
2015-Dec-30 19:31S 42°57' E 147°23'0 0.0
2015-Dec-30 18:31S 42°57' E 147°23'0 0.0
2015-Dec-30 17:31S 42°57' E 147°23'0 0.0
2015-Dec-30 16:31S 42°57' E 147°23'0 0.1
2015-Dec-30 15:31S 42°57' E 147°23'0 0.1
2015-Dec-30 14:31S 42°57' E 147°23'0 0.1
2015-Dec-30 13:31S 42°57' E 147°23'0 0.0
2015-Dec-30 12:31S 42°57' E 147°23'0 0.0
2015-Dec-30 11:31S 42°57' E 147°23'0 0.0
2015-Dec-30 10:33S 42°57' E 147°23'0 0.0
2015-Dec-30 09:33S 42°57' E 147°23'0 0.0
2015-Dec-30 08:31S 42°57' E 147°23'0 0.0
2015-Dec-30 07:33S 42°57' E 147°23'0 0.0
2015-Dec-30 06:31S 42°57' E 147°23'0 0.0
2015-Dec-30 05:31S 42°57' E 147°23'0 0.0
2015-Dec-30 04:33S 42°57' E 147°23'0 0.0
2015-Dec-30 03:33S 42°57' E 147°23'0 0.0
2015-Dec-30 02:31S 42°57' E 147°23'0 0.0
2015-Dec-30 01:31S 42°57' E 147°23'0 0.2
2015-Dec-30 00:31S 42°57' E 147°23'0 0.1
2015-Dec-29 23:31S 42°57' E 147°23'0 0.0
2015-Dec-29 22:33S 42°57' E 147°23'0 0.0
2015-Dec-29 21:31S 42°57' E 147°23'0 0.0
2015-Dec-29 20:27S 42°57' E 147°23'0 0.1
2015-Dec-29 19:31S 42°57' E 147°23'0 0.1
2015-Dec-29 18:33S 42°57' E 147°23'0 0.0
2015-Dec-29 17:31S 42°57' E 147°23'0 0.1
2015-Dec-29 16:31S 42°57' E 147°23'0 0.1
2015-Dec-29 15:32S 42°57' E 147°23'0 0.0
2015-Dec-29 14:31S 42°57' E 147°23'0 0.1
2015-Dec-29 13:31S 42°57' E 147°23'0 0.1
2015-Dec-29 12:31S 42°57' E 147°23'0 0.0
2015-Dec-29 11:34S 42°57' E 147°23'0 0.0
2015-Dec-29 10:31S 42°57' E 147°23'0 0.0
2015-Dec-29 09:31S 42°57' E 147°23'0 0.0
2015-Dec-29 08:32S 42°57' E 147°23'0 0.2
2015-Dec-29 07:31S 42°57' E 147°23'1010.3
2015-Dec-29 06:33S 43°06' E 147°27'1413.7
2015-Dec-29 05:34S 43°13' E 147°43'1212.0
2015-Dec-29 04:33S 43°16' E 147°59'1010.5
2015-Dec-29 03:33S 43°09' E 148°10'1413.5
2015-Dec-29 02:33S 42°56' E 148°15'1413.8
2015-Dec-29 01:33S 42°43' E 148°20'1414.2
2015-Dec-29 00:34S 42°29' E 148°26'2522.8
2015-Dec-28 23:27S 42°04' E 148°29'2 2.1
2015-Dec-28 22:33S 42°02' E 148°29'1312.4
2015-Dec-28 21:32S 41°50' E 148°29'1312.8
2015-Dec-28 20:33S 41°37' E 148°29'6114.3
2015-Dec-28 16:17S 40°39' E 148°05'16 8.4
2015-Dec-28 14:27S 40°42' E 147°45'2614.0
2015-Dec-28 12:33S 40°53' E 147°13'1211.5
2015-Dec-28 11:29S 40°55' E 146°57'1112.1
2015-Dec-28 10:33S 41°02' E 146°45'8 6.4
2015-Dec-28 09:21S 41°08' E 146°52'0 0.0
2015-Dec-28 08:16S 41°08' E 146°52'0 0.0
2015-Dec-28 07:27S 41°08' E 146°52'0 0.0
2015-Dec-28 06:24S 41°08' E 146°52'0 0.0
2015-Dec-28 05:30S 41°08' E 146°52'0 0.0
2015-Dec-28 04:33S 41°08' E 146°52'0 0.0
2015-Dec-28 03:30S 41°08' E 146°52'0 0.0
2015-Dec-28 02:06S 41°08' E 146°52'0 0.0
2015-Dec-28 01:33S 41°08' E 146°52'0 0.0
2015-Dec-28 00:18S 41°08' E 146°52'0 0.0
2015-Dec-27 23:33S 41°08' E 146°52'0 0.0
2015-Dec-27 22:30S 41°08' E 146°52'0 0.0
2015-Dec-27 19:33S 41°08' E 146°52'0 0.0
2015-Dec-27 18:25S 41°08' E 146°52'0 0.0
2015-Dec-27 17:15S 41°08' E 146°52'0 0.0
2015-Dec-27 16:27S 41°08' E 146°52'0 0.0
2015-Dec-27 15:24S 41°08' E 146°52'0 0.0
2015-Dec-27 13:12S 41°08' E 146°52'0 0.0
2015-Dec-27 12:15S 41°08' E 146°52'0 0.0
2015-Dec-27 11:21S 41°08' E 146°52'0 0.0
2015-Dec-27 10:15S 41°08' E 146°52'0 0.0
2015-Dec-27 09:33S 41°08' E 146°52'0 0.0
2015-Dec-27 08:18S 41°08' E 146°52'0 0.0
2015-Dec-27 07:33S 41°08' E 146°52'0 0.0
2015-Dec-27 06:30S 41°08' E 146°52'0 0.0
2015-Dec-27 05:21S 41°08' E 146°52'0 0.0
2015-Dec-27 04:24S 41°08' E 146°52'0 0.0
2015-Dec-27 03:24S 41°08' E 146°52'0 0.0
2015-Dec-27 02:27S 41°08' E 146°52'1 0.6
2015-Dec-27 01:33S 41°08' E 146°53'0 0.0
2015-Dec-27 00:28S 41°08' E 146°53'0 0.0
2015-Dec-26 23:28S 41°08' E 146°53'0 0.2
2015-Dec-26 22:16S 41°08' E 146°52'0 0.0
2015-Dec-26 21:31S 41°08' E 146°52'0 0.0
2015-Dec-26 20:28S 41°08' E 146°52'0 0.0
2015-Dec-26 19:16S 41°08' E 146°52'0 0.0
2015-Dec-26 18:04S 41°08' E 146°52'0 0.0
2015-Dec-26 17:19S 41°08' E 146°52'0 0.0
2015-Dec-26 13:22S 41°08' E 146°53'0 0.0
2015-Dec-26 12:22S 41°08' E 146°53'0 0.1
2015-Dec-26 11:33S 41°08' E 146°53'0 0.0
2015-Dec-26 10:28S 41°08' E 146°53'0 0.1
2015-Dec-26 09:28S 41°08' E 146°52'5 5.3
2015-Dec-26 08:33S 41°05' E 146°48'5 5.2
2015-Dec-26 07:32S 40°60' E 146°47'0 0.1
2015-Dec-26 06:26S 40°60' E 146°47'0 0.1
2015-Dec-26 05:20S 40°60' E 146°47'0 0.1
2015-Dec-26 04:31S 40°60' E 146°47'0 0.0
2015-Dec-26 03:27S 40°60' E 146°47'0 0.1
2015-Dec-26 02:17S 40°60' E 146°47'0 0.0
2015-Dec-26 01:32S 40°60' E 146°47'0 0.0
2015-Dec-26 00:26S 40°60' E 146°47'0 0.1
2015-Dec-25 23:28S 40°59' E 146°47'0 0.0
2015-Dec-25 22:29S 40°59' E 146°47'0 0.1
2015-Dec-25 21:30S 40°60' E 146°47'0 0.4
2015-Dec-25 20:33S 40°60' E 146°47'0 0.1
2015-Dec-25 19:33S 40°60' E 146°47'0 0.1
2015-Dec-25 18:28S 40°60' E 146°47'0 0.1
2015-Dec-25 17:30S 40°60' E 146°47'0 0.0
2015-Dec-25 16:32S 40°60' E 146°47'0 0.1
2015-Dec-25 15:32S 40°60' E 146°47'0 0.0
2015-Dec-25 14:32S 40°60' E 146°47'0 0.0
2015-Dec-25 13:32S 40°60' E 146°47'0 0.0
2015-Dec-25 12:32S 40°60' E 146°47'0 0.1
2015-Dec-25 11:32S 40°60' E 146°47'0 0.1
2015-Dec-25 10:32S 40°60' E 146°47'0 0.0
2015-Dec-25 09:32S 40°60' E 146°47'0 0.0
2015-Dec-25 08:32S 40°60' E 146°47'0 0.0
2015-Dec-25 07:32S 40°60' E 146°47'0 0.0
2015-Dec-25 06:32S 40°60' E 146°47'  

Dump ship's entire track history